Lane, California
Current Conditions -  °F | °C
As of 4:56 PM on Saturday 25 Oct 2014 (Local Time) from KWJF Reporting Station
Clear Clear  
Wind Chill: 75°   Ceiling: Unl
Heat Index: 75°   Visibility: 10mi
Dew Point: 42°   Wind: 21mph
Humidity: 31%   Direction: 240°WSW
Pressure: 30.03"   Gusts: 30mph
Location:  34.7349°N, 118.15°W
Report Text: KWJF 252356Z AUTO 24018G26KT 10SM CLR 24/06 A3003 RMK AO2 PK WND 25026/2350 SLP161 T02390056 10267 20239 56007 TSNO
Loading
Personal Weather Stations






























Interactive Weather Map
Tropical Storm Tracking
New forecast layout! Learn more

10-Day Weather Forecast

Advertisements
Track Severe Weather on mobile